createdAt,value
2023-04-27T00:02:03.684Z,100.00
2023-04-27T00:04:31.252Z,100.00
2023-04-27T00:06:58.591Z,100.00
2023-04-27T00:09:25.870Z,100.00
2023-04-27T00:11:53.256Z,100.00
2023-04-27T00:14:21.170Z,100.00
2023-04-27T00:16:48.626Z,100.00
2023-04-27T00:19:16.584Z,100.00
2023-04-27T00:21:43.953Z,100.00
2023-04-27T00:24:11.094Z,100.00
2023-04-27T00:26:38.357Z,100.00
2023-04-27T00:29:05.321Z,100.00
2023-04-27T00:31:32.566Z,100.00
2023-04-27T00:33:59.643Z,100.00
2023-04-27T00:36:27.457Z,100.00
2023-04-27T00:38:54.611Z,100.00
2023-04-27T00:41:23.116Z,100.00
2023-04-27T00:43:50.184Z,100.00
2023-04-27T00:46:17.640Z,100.00
2023-04-27T00:48:44.774Z,100.00
2023-04-27T00:51:12.207Z,100.00
2023-04-27T00:53:39.513Z,100.00
2023-04-27T00:56:07.898Z,100.00
2023-04-27T00:58:35.093Z,100.00
2023-04-27T01:01:02.394Z,100.00
2023-04-27T01:03:30.799Z,100.00
2023-04-27T01:06:01.762Z,100.00
2023-04-27T01:08:29.609Z,100.00
2023-04-27T01:10:57.273Z,100.00
2023-04-27T01:13:24.510Z,100.00
2023-04-27T01:15:51.780Z,100.00
2023-04-27T01:18:19.691Z,100.00
2023-04-27T01:20:47.013Z,100.00
2023-04-27T01:23:16.797Z,100.00
2023-04-27T01:25:44.823Z,100.00
2023-04-27T01:28:12.087Z,100.00
2023-04-27T01:30:39.480Z,100.00
2023-04-27T01:33:06.519Z,100.00
2023-04-27T01:35:33.895Z,100.00
2023-04-27T01:38:01.524Z,100.00
2023-04-27T01:40:28.875Z,100.00
2023-04-27T01:42:56.390Z,100.00
2023-04-27T01:45:23.602Z,100.00
2023-04-27T01:47:53.905Z,100.00
2023-04-27T01:50:21.387Z,100.00
2023-04-27T01:52:48.468Z,100.00
2023-04-27T01:55:15.815Z,100.00
2023-04-27T01:57:43.284Z,100.00
2023-04-27T02:00:14.160Z,100.00
2023-04-27T02:02:41.450Z,100.00
2023-04-27T02:05:09.000Z,100.00
2023-04-27T02:07:36.388Z,100.00
2023-04-27T02:10:03.852Z,100.00
2023-04-27T02:12:30.950Z,100.00
2023-04-27T02:14:58.290Z,100.00
2023-04-27T02:17:25.199Z,100.00
2023-04-27T02:19:52.650Z,100.00
2023-04-27T02:22:19.540Z,100.00
2023-04-27T02:24:46.940Z,100.00
2023-04-27T02:27:14.372Z,100.00
2023-04-27T02:29:42.012Z,100.00
2023-04-27T02:32:09.392Z,100.00
2023-04-27T02:34:36.614Z,100.00
2023-04-27T02:37:03.579Z,100.00
2023-04-27T02:39:31.530Z,100.00
2023-04-27T02:41:58.392Z,100.00
2023-04-27T02:44:25.731Z,100.00
2023-04-27T02:46:53.206Z,100.00
2023-04-27T02:49:21.193Z,100.00
2023-04-27T02:51:48.140Z,100.00
2023-04-27T02:54:15.473Z,100.00
2023-04-27T02:56:42.567Z,100.00
2023-04-27T02:59:09.752Z,100.00
2023-04-27T03:01:37.142Z,100.00
2023-04-27T03:04:04.832Z,100.00
2023-04-27T03:06:32.316Z,100.00
2023-04-27T03:08:59.729Z,100.00
2023-04-27T03:11:27.002Z,100.00
2023-04-27T03:13:54.348Z,100.00
2023-04-27T03:16:21.808Z,100.00
2023-04-27T03:18:49.027Z,100.00
2023-04-27T03:21:17.148Z,100.00
2023-04-27T03:23:44.485Z,100.00
2023-04-27T03:26:13.287Z,100.00
2023-04-27T03:28:41.341Z,100.00
2023-04-27T03:31:13.678Z,100.00
2023-04-27T03:33:42.014Z,100.00
2023-04-27T03:36:10.760Z,100.00
2023-04-27T03:38:38.117Z,100.00
2023-04-27T03:41:05.301Z,100.00
2023-04-27T03:43:32.649Z,100.00
2023-04-27T03:45:59.647Z,100.00
2023-04-27T03:48:27.364Z,100.00
2023-04-27T03:50:54.967Z,100.00
2023-04-27T03:53:22.423Z,100.00
2023-04-27T03:55:49.534Z,100.00
2023-04-27T03:58:18.046Z,100.00
2023-04-27T04:00:45.212Z,100.00
2023-04-27T04:03:12.934Z,100.00
2023-04-27T04:05:40.079Z,100.00
2023-04-27T04:08:07.504Z,100.00
2023-04-27T04:10:34.498Z,100.00
2023-04-27T04:13:01.922Z,100.00
2023-04-27T04:15:28.812Z,100.00
2023-04-27T04:17:56.218Z,100.00
2023-04-27T04:20:23.350Z,100.00
2023-04-27T04:22:50.571Z,100.00
2023-04-27T04:25:18.114Z,100.00
2023-04-27T04:27:45.380Z,100.00
2023-04-27T04:30:12.801Z,100.00
2023-04-27T04:32:40.540Z,100.00
2023-04-27T04:35:07.983Z,100.00
2023-04-27T04:37:35.672Z,100.00
2023-04-27T04:40:10.870Z,100.00
2023-04-27T04:42:38.564Z,100.00
2023-04-27T04:45:07.364Z,100.00
2023-04-27T04:47:35.288Z,100.00
2023-04-27T04:50:02.649Z,98.82
2023-04-27T04:52:30.249Z,97.59
2023-04-27T04:54:57.296Z,97.41
2023-04-27T04:57:24.527Z,95.29
2023-04-27T04:59:51.558Z,91.81
2023-04-27T05:02:19.175Z,88.45
2023-04-27T05:04:46.433Z,88.46
2023-04-27T05:07:15.249Z,87.26
2023-04-27T05:09:42.742Z,90.08
2023-04-27T05:12:10.433Z,87.12
2023-04-27T05:14:37.389Z,86.86
2023-04-27T05:17:04.665Z,86.27
2023-04-27T05:19:32.015Z,86.62
2023-04-27T05:21:59.337Z,85.89
2023-04-27T05:24:27.172Z,84.79
2023-04-27T05:26:55.056Z,85.47
2023-04-27T05:29:22.685Z,85.26
2023-04-27T05:31:50.338Z,85.21
2023-04-27T05:34:17.576Z,85.84
2023-04-27T05:36:44.848Z,86.58
2023-04-27T05:39:12.459Z,86.70
2023-04-27T05:41:40.236Z,87.08
2023-04-27T05:44:08.139Z,87.86
2023-04-27T05:46:38.422Z,87.60
2023-04-27T05:49:05.892Z,86.80
2023-04-27T05:51:33.676Z,85.77
2023-04-27T05:54:02.092Z,83.25
2023-04-27T05:56:29.427Z,80.64
2023-04-27T05:58:56.531Z,78.14
2023-04-27T06:01:24.096Z,76.33
2023-04-27T06:03:51.514Z,75.74
2023-04-27T06:06:18.805Z,73.99
2023-04-27T06:08:46.068Z,73.46
2023-04-27T06:11:13.465Z,73.36
2023-04-27T06:13:40.365Z,69.51
2023-04-27T06:16:08.307Z,69.59
2023-04-27T06:18:35.411Z,69.61
2023-04-27T06:21:02.935Z,71.77
2023-04-27T06:23:30.272Z,70.42
2023-04-27T06:25:58.939Z,70.80
2023-04-27T06:28:26.344Z,69.15
2023-04-27T06:30:54.743Z,67.80
2023-04-27T06:33:22.067Z,67.11
2023-04-27T06:35:49.245Z,67.41
2023-04-27T06:38:16.917Z,67.61
2023-04-27T06:40:45.079Z,67.43
2023-04-27T06:43:12.058Z,66.27
2023-04-27T06:45:39.556Z,64.91
2023-04-27T06:48:06.784Z,63.61
2023-04-27T06:50:34.054Z,62.88
2023-04-27T06:53:01.142Z,63.32
2023-04-27T06:55:28.498Z,64.41
2023-04-27T06:57:55.518Z,62.95
2023-04-27T07:00:23.229Z,63.57
2023-04-27T07:02:50.445Z,65.11
2023-04-27T07:05:18.081Z,61.83
2023-04-27T07:07:45.284Z,61.02
2023-04-27T07:10:12.873Z,61.35
2023-04-27T07:12:40.232Z,60.47
2023-04-27T07:15:08.209Z,61.72
2023-04-27T07:17:35.283Z,60.77
2023-04-27T07:20:07.217Z,58.82
2023-04-27T07:22:34.448Z,62.28
2023-04-27T07:25:02.015Z,60.45
2023-04-27T07:27:29.211Z,62.08
2023-04-27T07:29:56.856Z,65.83
2023-04-27T07:32:23.976Z,67.02
2023-04-27T07:34:54.381Z,69.06
2023-04-27T07:37:23.012Z,68.39
2023-04-27T07:39:54.467Z,68.64
2023-04-27T07:42:25.454Z,68.14
2023-04-27T07:44:54.262Z,69.33
2023-04-27T07:47:22.194Z,69.26
2023-04-27T07:49:49.483Z,68.26
2023-04-27T07:52:16.671Z,65.95
2023-04-27T07:54:43.849Z,62.65
2023-04-27T07:57:12.223Z,61.14
2023-04-27T07:59:39.660Z,55.47
2023-04-27T08:02:17.892Z,52.21
2023-04-27T08:04:48.173Z,48.79
2023-04-27T08:07:19.452Z,49.49
2023-04-27T08:09:47.016Z,49.93
2023-04-27T08:12:14.504Z,50.85
2023-04-27T08:14:42.579Z,53.66
2023-04-27T08:17:09.510Z,53.92
2023-04-27T08:19:37.033Z,54.44
2023-04-27T08:22:04.232Z,53.90
2023-04-27T08:24:32.106Z,51.80
2023-04-27T08:26:59.218Z,52.62
2023-04-27T08:29:28.787Z,53.28
2023-04-27T08:31:59.631Z,53.97
2023-04-27T08:34:27.927Z,56.20
2023-04-27T08:36:55.555Z,60.57
2023-04-27T08:39:23.812Z,59.88
2023-04-27T08:41:51.031Z,55.18
2023-04-27T08:44:18.223Z,53.37
2023-04-27T08:46:45.364Z,51.41
2023-04-27T08:49:15.171Z,46.99
2023-04-27T08:51:43.766Z,46.65
2023-04-27T08:54:11.201Z,45.38
2023-04-27T08:56:39.704Z,45.54
2023-04-27T08:59:15.816Z,53.77
2023-04-27T09:01:50.050Z,60.41
2023-04-27T09:04:18.214Z,63.95
2023-04-27T09:06:46.298Z,63.47
2023-04-27T09:09:23.989Z,63.74
2023-04-27T09:11:51.610Z,63.30
2023-04-27T09:14:25.353Z,60.56
2023-04-27T09:16:58.666Z,54.69
2023-04-27T09:19:27.687Z,52.47
2023-04-27T09:22:24.342Z,50.97
2023-04-27T09:24:52.771Z,51.73
2023-04-27T09:27:21.242Z,50.40
2023-04-27T09:29:48.641Z,47.44
2023-04-27T09:32:20.880Z,46.23
2023-04-27T09:34:48.490Z,44.09
2023-04-27T09:37:16.115Z,45.89
2023-04-27T09:39:44.448Z,44.31
2023-04-27T09:42:12.714Z,46.17
2023-04-27T09:44:40.237Z,46.29
2023-04-27T09:47:07.817Z,46.55
2023-04-27T09:49:36.013Z,45.55
2023-04-27T09:52:03.171Z,47.09
2023-04-27T09:54:32.802Z,46.86
2023-04-27T09:57:38.213Z,46.09
2023-04-27T10:00:24.609Z,44.22
2023-04-27T10:03:23.916Z,45.49
2023-04-27T10:06:09.885Z,48.72
2023-04-27T10:08:37.016Z,49.71
2023-04-27T10:11:17.675Z,51.25
2023-04-27T10:13:55.416Z,50.47
2023-04-27T10:16:23.015Z,49.06
2023-04-27T10:18:55.862Z,47.30
2023-04-27T10:21:24.147Z,45.38
2023-04-27T10:23:52.269Z,44.96
2023-04-27T10:26:25.292Z,44.18
2023-04-27T10:29:00.651Z,43.80
2023-04-27T10:31:29.663Z,41.63
2023-04-27T10:34:10.517Z,39.95
2023-04-27T10:36:39.394Z,39.74
2023-04-27T10:39:27.611Z,40.21
2023-04-27T10:42:03.863Z,40.39
2023-04-27T10:44:33.515Z,39.61
2023-04-27T10:47:12.180Z,43.55
2023-04-27T10:49:39.712Z,47.12
2023-04-27T10:52:07.195Z,46.41
2023-04-27T10:54:34.821Z,44.87
2023-04-27T10:57:10.223Z,46.57
2023-04-27T10:59:55.904Z,50.25
2023-04-27T11:02:28.041Z,47.92
2023-04-27T11:04:56.856Z,47.98
2023-04-27T11:07:29.250Z,48.28
2023-04-27T11:09:56.212Z,49.08
2023-04-27T11:12:24.328Z,49.48
2023-04-27T11:14:51.354Z,47.62
2023-04-27T11:17:29.529Z,46.11
2023-04-27T11:19:56.813Z,46.08
2023-04-27T11:22:24.253Z,46.54
2023-04-27T11:24:52.099Z,45.60
2023-04-27T11:27:22.305Z,45.36
2023-04-27T11:29:49.479Z,45.48
2023-04-27T11:32:21.517Z,43.36
2023-04-27T11:34:53.596Z,42.17
2023-04-27T11:37:24.465Z,40.57
2023-04-27T11:39:52.273Z,40.53
2023-04-27T11:42:28.758Z,38.11
2023-04-27T11:45:00.061Z,38.47
2023-04-27T11:47:29.495Z,37.65
2023-04-27T11:50:00.697Z,39.22
2023-04-27T11:52:33.319Z,39.42
2023-04-27T11:55:01.500Z,42.11
2023-04-27T11:57:31.156Z,43.84
2023-04-27T12:00:03.519Z,45.32
2023-04-27T12:02:31.730Z,45.78
2023-04-27T12:05:00.247Z,47.35
2023-04-27T12:07:30.942Z,49.32
2023-04-27T12:09:59.537Z,48.88
2023-04-27T12:12:28.582Z,49.54
2023-04-27T12:14:55.771Z,48.25
2023-04-27T12:17:23.527Z,45.59
2023-04-27T12:19:50.614Z,44.84
2023-04-27T12:22:18.053Z,44.30
2023-04-27T12:24:44.981Z,42.89
2023-04-27T12:27:13.089Z,41.99
2023-04-27T12:29:40.406Z,39.89
2023-04-27T12:32:07.851Z,38.84
2023-04-27T12:34:36.192Z,38.99
2023-04-27T12:37:03.844Z,39.71
2023-04-27T12:39:33.913Z,38.52
2023-04-27T12:42:02.565Z,39.91
2023-04-27T12:44:30.051Z,40.14
2023-04-27T12:46:57.357Z,40.47
2023-04-27T12:49:24.897Z,40.25
2023-04-27T12:51:53.527Z,38.90
2023-04-27T12:54:20.547Z,39.47
2023-04-27T12:56:51.425Z,38.25
2023-04-27T12:59:18.696Z,39.37
2023-04-27T13:01:46.665Z,39.53
2023-04-27T13:04:20.875Z,40.53
2023-04-27T13:06:49.099Z,41.49
2023-04-27T13:09:16.981Z,41.37
2023-04-27T13:11:44.932Z,43.00
2023-04-27T13:14:15.949Z,44.06
2023-04-27T13:16:43.953Z,43.81
2023-04-27T13:19:11.758Z,42.24
2023-04-27T13:21:39.395Z,41.44
2023-04-27T13:24:07.273Z,42.62
2023-04-27T13:26:35.095Z,42.53
2023-04-27T13:29:04.966Z,42.01
2023-04-27T13:31:33.404Z,41.71
2023-04-27T13:34:01.747Z,40.72
2023-04-27T13:36:29.158Z,39.96
2023-04-27T13:38:56.396Z,40.56
2023-04-27T13:41:24.493Z,41.33
2023-04-27T13:43:56.360Z,43.12
2023-04-27T13:46:26.491Z,42.89
2023-04-27T13:48:53.966Z,43.35
2023-04-27T13:51:21.784Z,43.23
2023-04-27T13:53:48.932Z,42.01
2023-04-27T13:56:16.221Z,42.06
2023-04-27T13:58:43.238Z,41.40
2023-04-27T14:01:10.904Z,40.96
2023-04-27T14:03:38.932Z,40.79
2023-04-27T14:06:08.135Z,41.18
2023-04-27T14:08:35.350Z,40.59
2023-04-27T14:11:02.893Z,40.20
2023-04-27T14:13:31.073Z,39.82
2023-04-27T14:15:58.527Z,41.51
2023-04-27T14:18:32.280Z,42.18
2023-04-27T14:21:00.419Z,42.05
2023-04-27T14:23:27.549Z,42.07
2023-04-27T14:25:55.202Z,41.64
2023-04-27T14:28:22.346Z,41.36
2023-04-27T14:30:49.610Z,42.14
2023-04-27T14:33:16.944Z,42.32
2023-04-27T14:35:44.348Z,43.07
2023-04-27T14:38:11.604Z,43.30
2023-04-27T14:40:38.924Z,43.41
2023-04-27T14:43:06.027Z,43.06
2023-04-27T14:45:47.750Z,42.38
2023-04-27T14:48:17.940Z,42.15
2023-04-27T14:50:48.382Z,42.20
2023-04-27T14:53:16.221Z,43.37
2023-04-27T14:55:46.187Z,43.91
2023-04-27T14:58:13.609Z,42.33
2023-04-27T15:00:41.454Z,42.50
2023-04-27T15:03:09.104Z,42.69
2023-04-27T15:05:36.600Z,43.67
2023-04-27T15:08:04.041Z,44.17
2023-04-27T15:10:31.677Z,43.79
2023-04-27T15:12:58.708Z,43.82
2023-04-27T15:15:26.165Z,43.35
2023-04-27T15:17:53.323Z,43.22
2023-04-27T15:20:20.943Z,44.13
2023-04-27T15:22:47.873Z,44.06
2023-04-27T15:25:15.601Z,43.72
2023-04-27T15:27:42.561Z,44.17
2023-04-27T15:30:10.356Z,43.25
2023-04-27T15:32:37.587Z,43.70
2023-04-27T15:35:06.115Z,43.03
2023-04-27T15:37:35.394Z,42.88
2023-04-27T15:40:03.707Z,43.24
2023-04-27T15:42:30.995Z,43.26
2023-04-27T15:44:58.324Z,42.92
2023-04-27T15:47:25.486Z,42.32
2023-04-27T15:49:57.837Z,42.46
2023-04-27T15:52:27.149Z,42.79
2023-04-27T15:54:55.184Z,42.24
2023-04-27T15:57:22.260Z,41.14
2023-04-27T15:59:49.701Z,40.85
2023-04-27T16:02:16.744Z,40.42
2023-04-27T16:04:44.432Z,40.94
2023-04-27T16:07:11.723Z,41.10
2023-04-27T16:09:39.147Z,42.59
2023-04-27T16:12:06.758Z,41.87
2023-04-27T16:14:34.424Z,41.30
2023-04-27T16:17:04.476Z,41.01
2023-04-27T16:19:32.148Z,41.46
2023-04-27T16:22:01.513Z,40.77
2023-04-27T16:24:31.141Z,40.56
2023-04-27T16:26:58.450Z,40.70
2023-04-27T16:29:26.281Z,41.49
2023-04-27T16:31:53.397Z,41.64
2023-04-27T16:34:21.079Z,41.61
2023-04-27T16:36:49.859Z,40.89
2023-04-27T16:39:19.496Z,41.25
2023-04-27T16:41:47.153Z,42.10
2023-04-27T16:44:15.699Z,40.79
2023-04-27T16:46:43.426Z,41.29
2023-04-27T16:49:10.977Z,42.05
2023-04-27T16:51:38.170Z,42.30
2023-04-27T16:54:06.520Z,42.28
2023-04-27T16:56:35.669Z,42.92
2023-04-27T16:59:06.939Z,42.76
2023-04-27T17:01:34.362Z,42.98
2023-04-27T17:04:02.688Z,43.68
2023-04-27T17:06:30.322Z,44.12
2023-04-27T17:08:58.228Z,44.79
2023-04-27T17:11:25.418Z,45.14
2023-04-27T17:13:53.058Z,44.94
2023-04-27T17:16:21.100Z,45.14
2023-04-27T17:18:48.566Z,45.86
2023-04-27T17:21:17.287Z,45.52
2023-04-27T17:23:47.653Z,47.54
2023-04-27T17:26:19.919Z,48.35
2023-04-27T17:28:47.855Z,49.29
2023-04-27T17:31:16.847Z,49.04
2023-04-27T17:33:46.312Z,49.42
2023-04-27T17:36:15.167Z,49.81
2023-04-27T17:38:42.534Z,50.43
2023-04-27T17:41:09.631Z,50.55
2023-04-27T17:43:37.777Z,51.39
2023-04-27T17:46:09.937Z,52.07
2023-04-27T17:48:38.272Z,52.25
2023-04-27T17:51:05.348Z,52.50
2023-04-27T17:53:32.761Z,53.27
2023-04-27T17:56:00.642Z,53.20
2023-04-27T17:58:28.195Z,54.12
2023-04-27T18:00:55.253Z,53.25
2023-04-27T18:03:24.112Z,53.56
2023-04-27T18:05:51.954Z,53.63
2023-04-27T18:08:19.256Z,54.23
2023-04-27T18:10:46.773Z,55.20
2023-04-27T18:13:14.210Z,56.33
2023-04-27T18:15:41.368Z,56.63
2023-04-27T18:18:08.763Z,57.41
2023-04-27T18:20:35.953Z,57.62
2023-04-27T18:23:03.417Z,57.34
2023-04-27T18:25:31.155Z,57.42
2023-04-27T18:27:58.508Z,56.66
2023-04-27T18:30:25.549Z,56.45
2023-04-27T18:32:53.164Z,57.43
2023-04-27T18:35:20.199Z,56.76
2023-04-27T18:37:48.484Z,56.56
2023-04-27T18:40:20.035Z,58.27
2023-04-27T18:42:47.419Z,59.74
2023-04-27T18:45:14.413Z,60.61
2023-04-27T18:47:41.795Z,60.54
2023-04-27T18:50:10.552Z,63.81
2023-04-27T18:52:37.852Z,66.21
2023-04-27T18:55:05.686Z,63.95
2023-04-27T18:57:33.288Z,63.44
2023-04-27T19:00:00.626Z,64.69
2023-04-27T19:02:28.326Z,66.26
2023-04-27T19:05:11.128Z,68.50
2023-04-27T19:07:40.837Z,68.75
2023-04-27T19:10:09.553Z,67.34
2023-04-27T19:12:37.723Z,69.06
2023-04-27T19:15:05.013Z,69.23
2023-04-27T19:17:32.700Z,70.19
2023-04-27T19:19:59.740Z,71.10
2023-04-27T19:22:28.476Z,70.16
2023-04-27T19:24:55.655Z,71.86
2023-04-27T19:27:23.023Z,72.69
2023-04-27T19:29:54.899Z,73.01
2023-04-27T19:32:27.127Z,73.44
2023-04-27T19:34:58.340Z,72.89
2023-04-27T19:37:27.082Z,72.00
2023-04-27T19:39:54.145Z,76.58
2023-04-27T19:42:21.666Z,76.10
2023-04-27T19:44:48.564Z,75.18
2023-04-27T19:47:16.171Z,72.60
2023-04-27T19:49:43.363Z,73.38
2023-04-27T19:52:10.297Z,77.16
2023-04-27T19:54:38.528Z,78.03
2023-04-27T19:57:05.937Z,78.38
2023-04-27T19:59:33.410Z,78.00
2023-04-27T20:02:00.759Z,77.63
2023-04-27T20:04:29.089Z,77.71
2023-04-27T20:06:56.637Z,77.94
2023-04-27T20:09:23.922Z,77.23
2023-04-27T20:11:51.049Z,76.50
2023-04-27T20:14:18.621Z,76.38
2023-04-27T20:16:45.618Z,78.75
2023-04-27T20:19:13.872Z,79.50
2023-04-27T20:21:40.798Z,83.32
2023-04-27T20:24:08.123Z,84.96
2023-04-27T20:26:35.203Z,86.93
2023-04-27T20:29:02.578Z,88.25
2023-04-27T20:31:29.492Z,90.01
2023-04-27T20:33:57.054Z,91.62
2023-04-27T20:36:23.983Z,93.89
2023-04-27T20:38:51.176Z,95.36
2023-04-27T20:41:18.369Z,96.35
2023-04-27T20:43:46.112Z,96.43
2023-04-27T20:46:13.402Z,97.27
2023-04-27T20:48:40.715Z,97.84
2023-04-27T20:51:08.083Z,99.09
2023-04-27T20:53:35.384Z,100.00
2023-04-27T20:56:02.669Z,100.00
2023-04-27T20:58:29.854Z,100.00
2023-04-27T21:00:56.857Z,100.00
2023-04-27T21:03:24.450Z,100.00
2023-04-27T21:05:51.707Z,100.00
2023-04-27T21:08:19.233Z,100.00
2023-04-27T21:10:46.357Z,100.00
2023-04-27T21:13:13.848Z,100.00
2023-04-27T21:15:40.852Z,100.00
2023-04-27T21:18:13.427Z,100.00
2023-04-27T21:20:46.265Z,100.00
2023-04-27T21:23:14.910Z,100.00
2023-04-27T21:25:48.244Z,100.00
2023-04-27T21:28:15.704Z,100.00
2023-04-27T21:30:43.020Z,100.00
2023-04-27T21:33:10.379Z,100.00
2023-04-27T21:35:38.162Z,100.00
2023-04-27T21:38:05.397Z,100.00
2023-04-27T21:40:32.294Z,100.00
2023-04-27T21:42:59.656Z,100.00
2023-04-27T21:45:26.945Z,100.00
2023-04-27T21:47:54.171Z,100.00
2023-04-27T21:50:21.467Z,100.00
2023-04-27T21:52:48.640Z,100.00
2023-04-27T21:55:15.742Z,100.00
2023-04-27T21:57:43.354Z,100.00
2023-04-27T22:00:13.951Z,100.00
2023-04-27T22:02:42.734Z,100.00
2023-04-27T22:05:10.179Z,100.00
2023-04-27T22:07:38.207Z,100.00
2023-04-27T22:10:07.082Z,100.00
2023-04-27T22:12:34.446Z,100.00
2023-04-27T22:15:01.516Z,100.00
2023-04-27T22:17:28.813Z,100.00
2023-04-27T22:19:55.999Z,100.00
2023-04-27T22:22:23.363Z,100.00
2023-04-27T22:24:50.379Z,100.00
2023-04-27T22:27:18.426Z,100.00
2023-04-27T22:29:45.576Z,100.00
2023-04-27T22:32:13.163Z,100.00
2023-04-27T22:34:40.126Z,100.00
2023-04-27T22:37:07.386Z,100.00
2023-04-27T22:39:34.469Z,100.00
2023-04-27T22:42:01.960Z,100.00
2023-04-27T22:44:28.838Z,100.00
2023-04-27T22:46:56.394Z,100.00
2023-04-27T22:49:24.415Z,100.00
2023-04-27T22:51:51.618Z,100.00
2023-04-27T22:54:18.800Z,100.00
2023-04-27T22:56:46.106Z,100.00
2023-04-27T22:59:13.543Z,100.00
2023-04-27T23:01:40.830Z,100.00
2023-04-27T23:04:09.487Z,100.00
2023-04-27T23:06:36.791Z,100.00
2023-04-27T23:09:04.005Z,100.00
2023-04-27T23:11:31.646Z,100.00
2023-04-27T23:13:58.696Z,100.00
2023-04-27T23:16:25.958Z,100.00
2023-04-27T23:18:53.257Z,100.00
2023-04-27T23:21:20.583Z,100.00
2023-04-27T23:23:47.846Z,100.00
2023-04-27T23:26:16.455Z,100.00
2023-04-27T23:28:43.707Z,100.00
2023-04-27T23:31:11.036Z,100.00
2023-04-27T23:33:38.549Z,100.00
2023-04-27T23:36:06.052Z,100.00
2023-04-27T23:38:33.359Z,100.00
2023-04-27T23:41:01.071Z,100.00
2023-04-27T23:43:28.082Z,100.00
2023-04-27T23:45:55.930Z,100.00
2023-04-27T23:48:23.279Z,100.00
2023-04-27T23:50:58.870Z,100.00
2023-04-27T23:53:26.602Z,100.00
2023-04-27T23:55:53.942Z,100.00
2023-04-27T23:58:22.032Z,100.00
